Time;durP1;ratioP1;P1;durP2;ratioP2;P2;SDS_P1;SDS_P2;PMS_P1;PMS_P2;Temp;Humidity;BMP_temperature;BMP_pressure;BME280_temperature;BME280_humidity;BME280_pressure;Samples;Min_cycle;Max_cycle;Signal;HPM_P1;HPM_P2
2021/07/08 00:00:57;;;;;;;3.60;3.40;;;17.20;99.90;;;;;;5065658;28;20660;-87
2021/07/08 00:03:25;;;;;;;3.07;2.87;;;17.30;99.90;;;;;;5071140;28;20619;-87
2021/07/08 00:05:53;;;;;;;3.27;2.97;;;17.30;99.90;;;;;;5073510;28;20620;-87
2021/07/08 00:08:22;;;;;;;3.30;3.10;;;17.20;99.90;;;;;;5073442;28;21067;-87
2021/07/08 00:10:55;;;;;;;4.27;2.80;;;17.20;99.90;;;;;;5073274;28;20604;-88
2021/07/08 00:13:24;;;;;;;3.73;3.20;;;17.20;99.90;;;;;;5084386;28;20628;-87
2021/07/08 00:15:53;;;;;;;6.60;3.10;;;17.20;99.90;;;;;;5067190;28;20644;-88
2021/07/08 00:18:21;;;;;;;3.73;3.43;;;17.10;99.90;;;;;;5073615;28;20616;-88
2021/07/08 00:20:49;;;;;;;4.07;3.47;;;17.10;99.90;;;;;;5072755;28;21233;-88
2021/07/08 00:23:17;;;;;;;4.30;3.13;;;17.20;99.90;;;;;;5072923;28;20716;-88
2021/07/08 00:25:46;;;;;;;4.17;3.53;;;17.20;99.90;;;;;;5072968;28;20614;-87
2021/07/08 00:28:15;;;;;;;8.40;2.97;;;17.30;99.90;;;;;;5073295;28;20621;-87
2021/07/08 00:30:43;;;;;;;3.77;3.53;;;17.30;99.90;;;;;;5067268;28;20693;-87
2021/07/08 00:33:10;;;;;;;6.23;3.20;;;17.20;99.90;;;;;;5072964;28;20650;-87
2021/07/08 00:35:39;;;;;;;3.10;2.90;;;17.20;99.90;;;;;;5072626;28;20612;-88
2021/07/08 00:38:06;;;;;;;3.50;3.20;;;17.20;99.90;;;;;;5073247;28;20644;-88
2021/07/08 00:40:34;;;;;;;4.30;3.50;;;17.20;99.90;;;;;;5076223;28;20721;-87
2021/07/08 00:43:02;;;;;;;2.97;2.77;;;17.10;99.90;;;;;;5076440;28;20699;-88
2021/07/08 00:45:29;;;;;;;3.30;3.10;;;17.10;99.90;;;;;;5071610;28;20649;-88
2021/07/08 00:47:57;;;;;;;3.83;3.53;;;17.10;99.90;;;;;;5072525;28;20615;-87
2021/07/08 00:50:28;;;;;;;4.97;4.47;;;17.20;99.90;;;;;;5072649;28;20677;-88
2021/07/08 00:52:55;;;;;;;5.10;4.60;;;17.20;99.90;;;;;;5072668;28;20617;-88
2021/07/08 00:55:22;;;;;;;4.00;3.70;;;17.20;99.90;;;;;;5071813;28;21150;-88
2021/07/08 00:57:53;;;;;;;4.60;3.83;;;17.20;99.90;;;;;;5072128;28;20607;-87
2021/07/08 01:00:23;;;;;;;4.40;4.00;;;17.10;99.90;;;;;;5066966;28;20670;-88
2021/07/08 01:02:52;;;;;;;3.93;3.33;;;17.10;99.90;;;;;;5072108;28;20686;-89
2021/07/08 01:05:21;;;;;;;4.33;3.87;;;17.10;99.90;;;;;;5069827;28;20628;-89
2021/07/08 01:07:50;;;;;;;4.27;3.87;;;17.30;99.90;;;;;;5070591;28;21004;-89
2021/07/08 01:10:21;;;;;;;6.93;4.20;;;17.30;99.90;;;;;;5071382;28;20620;-89
2021/07/08 01:12:49;;;;;;;3.67;3.47;;;17.30;99.90;;;;;;5070732;28;20758;-88
2021/07/08 01:15:18;;;;;;;5.20;3.83;;;17.30;99.90;;;;;;5070037;28;21617;-88
2021/07/08 01:17:54;;;;;;;4.00;3.70;;;17.30;99.90;;;;;;5076224;28;21358;-88
2021/07/08 01:20:26;;;;;;;3.83;3.53;;;17.20;99.90;;;;;;5079312;28;20671;-89
2021/07/08 01:22:59;;;;;;;5.40;3.97;;;17.20;99.90;;;;;;5084387;28;20658;-89
2021/07/08 01:25:31;;;;;;;4.63;4.20;;;17.30;99.90;;;;;;5092311;28;20680;-89
2021/07/08 01:28:02;;;;;;;3.90;3.60;;;17.20;99.90;;;;;;5073103;28;20620;-88
2021/07/08 01:30:33;;;;;;;4.13;3.83;;;17.10;99.90;;;;;;5067089;28;20701;-88
2021/07/08 01:33:02;;;;;;;5.30;3.63;;;17.10;99.90;;;;;;5071495;28;21161;-88
2021/07/08 01:35:30;;;;;;;4.03;3.63;;;17.00;99.90;;;;;;5082057;28;20619;-89
2021/07/08 01:38:00;;;;;;;3.43;2.97;;;17.10;99.90;;;;;;5092513;28;20648;-88
2021/07/08 01:40:31;;;;;;;6.40;4.50;;;17.20;99.90;;;;;;5092132;28;20691;-88
2021/07/08 01:43:00;;;;;;;4.63;4.33;;;17.20;99.90;;;;;;5094153;28;20623;-88
2021/07/08 01:45:28;;;;;;;4.77;4.30;;;17.20;99.90;;;;;;5069997;28;21003;-89
2021/07/08 01:47:57;;;;;;;6.40;3.60;;;17.20;99.90;;;;;;5071670;28;20643;-88
2021/07/08 01:50:29;;;;;;;5.77;3.67;;;17.20;99.90;;;;;;5071946;28;20631;-87
2021/07/08 01:53:10;;;;;;;4.00;3.70;;;17.10;99.90;;;;;;5086544;28;20684;-87
2021/07/08 01:55:40;;;;;;;4.07;3.77;;;17.00;99.90;;;;;;5091529;28;20619;-88
2021/07/08 01:58:07;;;;;;;3.77;3.47;;;16.90;99.90;;;;;;5090755;28;20653;-89
2021/07/08 02:00:35;;;;;;;3.33;3.03;;;16.80;99.90;;;;;;5086509;28;20782;-88
2021/07/08 02:03:04;;;;;;;5.13;4.73;;;16.80;99.90;;;;;;5091526;28;21171;-89
2021/07/08 02:08:58;;;;;;;4.00;3.70;;;16.80;99.90;;;;;;5091422;28;20608;-88
2021/07/08 02:11:28;;;;;;;4.60;4.20;;;16.80;99.90;;;;;;5086727;28;21076;-88
2021/07/08 02:13:56;;;;;;;5.03;4.63;;;16.90;99.90;;;;;;5075966;28;20645;-89
2021/07/08 02:16:24;;;;;;;7.40;4.90;;;16.80;99.90;;;;;;5069516;28;20634;-89
2021/07/08 02:18:52;;;;;;;5.33;4.87;;;16.70;99.90;;;;;;5070671;28;21283;-89
2021/07/08 02:21:21;;;;;;;4.60;4.30;;;16.70;99.90;;;;;;5070511;28;20672;-89
2021/07/08 02:23:50;;;;;;;5.20;4.80;;;16.80;99.90;;;;;;5070580;28;20627;-89
2021/07/08 02:26:22;;;;;;;5.77;4.37;;;16.70;99.90;;;;;;5077744;28;21320;-89
2021/07/08 02:28:53;;;;;;;5.00;4.00;;;16.70;99.90;;;;;;5088981;28;20613;-89
2021/07/08 02:31:23;;;;;;;4.13;3.83;;;16.60;99.90;;;;;;5088416;28;20660;-89
2021/07/08 02:33:52;;;;;;;4.50;4.10;;;16.60;99.90;;;;;;5091533;28;20704;-88
2021/07/08 02:36:24;;;;;;;5.47;4.30;;;16.50;99.90;;;;;;5091096;28;20672;-89
2021/07/08 02:38:54;;;;;;;4.40;4.00;;;16.50;99.90;;;;;;5091021;28;20621;-89
2021/07/08 02:41:24;;;;;;;8.53;4.10;;;16.60;99.90;;;;;;5090984;28;20673;-89
2021/07/08 02:43:53;;;;;;;5.63;5.23;;;16.60;99.90;;;;;;5090726;28;20614;-90
2021/07/08 02:46:22;;;;;;;5.50;4.37;;;16.60;99.90;;;;;;5071315;28;20609;-89
2021/07/08 02:48:50;;;;;;;6.13;4.07;;;16.60;99.90;;;;;;5070644;28;20620;-89
2021/07/08 02:51:17;;;;;;;3.77;3.47;;;16.70;99.90;;;;;;5070610;28;20602;-88
2021/07/08 02:53:44;;;;;;;7.63;4.03;;;16.70;99.90;;;;;;5071086;28;20653;-89
2021/07/08 02:56:12;;;;;;;4.10;3.80;;;16.70;99.90;;;;;;5070524;28;20717;-89
2021/07/08 02:58:40;;;;;;;4.63;3.47;;;16.70;99.90;;;;;;5070701;28;20710;-89
2021/07/08 03:01:07;;;;;;;4.17;3.80;;;16.60;99.90;;;;;;5070598;28;21001;-89
2021/07/08 03:03:34;;;;;;;5.30;3.50;;;16.60;99.90;;;;;;5065430;28;20657;-89
2021/07/08 03:06:01;;;;;;;3.60;3.30;;;16.60;99.90;;;;;;5070264;28;20608;-89
2021/07/08 03:08:28;;;;;;;4.63;3.83;;;16.60;99.90;;;;;;5070675;28;20680;-89
2021/07/08 03:10:55;;;;;;;4.27;3.97;;;16.70;99.90;;;;;;5069848;28;21137;-89
2021/07/08 03:13:22;;;;;;;4.90;3.50;;;16.70;99.90;;;;;;5063459;28;21199;-89
2021/07/08 03:15:51;;;;;;;16.77;4.20;;;16.70;99.90;;;;;;5050395;28;20618;-89
2021/07/08 03:18:17;;;;;;;6.10;3.70;;;16.70;99.90;;;;;;5045694;28;20744;-90
2021/07/08 03:20:45;;;;;;;4.63;3.47;;;16.60;99.90;;;;;;5056144;28;20656;-90
2021/07/08 03:23:12;;;;;;;3.77;3.40;;;16.60;99.90;;;;;;5070235;28;20614;-90
2021/07/08 03:25:39;;;;;;;3.60;3.13;;;16.60;99.90;;;;;;5071484;28;20627;-89
2021/07/08 03:28:07;;;;;;;4.10;3.70;;;16.70;99.90;;;;;;5090587;28;20627;-89
2021/07/08 03:30:34;;;;;;;4.17;3.87;;;16.80;99.90;;;;;;5090244;28;20702;-89
2021/07/08 03:33:03;;;;;;;6.37;4.20;;;16.80;99.90;;;;;;5087492;28;20707;-89
2021/07/08 03:35:31;;;;;;;4.37;3.97;;;16.80;99.90;;;;;;5088716;28;21006;-89
2021/07/08 03:38:00;;;;;;;3.97;3.67;;;16.80;99.90;;;;;;5090771;28;20619;-89
2021/07/08 03:40:29;;;;;;;3.70;3.50;;;16.90;99.90;;;;;;5094399;28;21010;-89
2021/07/08 03:42:56;;;;;;;5.53;3.70;;;17.00;99.90;;;;;;5094656;28;20706;-89
2021/07/08 03:45:31;;;;;;;4.73;4.00;;;17.00;99.90;;;;;;5084036;28;20617;-88
2021/07/08 03:47:58;;;;;;;4.03;3.60;;;17.00;99.90;;;;;;5065321;28;20636;-89
2021/07/08 03:50:26;;;;;;;5.80;4.40;;;16.90;99.90;;;;;;5073812;28;20603;-87
2021/07/08 03:52:53;;;;;;;6.53;4.70;;;16.90;99.90;;;;;;5074340;28;21027;-88
2021/07/08 03:55:22;;;;;;;5.40;4.87;;;16.90;99.90;;;;;;5073575;28;20687;-89
2021/07/08 03:57:55;;;;;;;7.73;3.77;;;16.90;99.90;;;;;;5073908;28;20618;-88
2021/07/08 04:00:29;;;;;;;5.53;4.40;;;16.90;99.90;;;;;;5074016;28;20719;-88
2021/07/08 04:02:58;;;;;;;4.73;4.33;;;16.90;99.90;;;;;;5069654;28;20636;-89
2021/07/08 04:05:26;;;;;;;7.73;4.27;;;16.90;99.90;;;;;;5072838;28;21200;-88
2021/07/08 04:07:53;;;;;;;4.70;4.30;;;16.90;99.90;;;;;;5073800;28;21000;-88
2021/07/08 04:10:20;;;;;;;6.53;4.27;;;16.90;99.90;;;;;;5073805;28;20955;-88
2021/07/08 04:12:48;;;;;;;5.90;5.40;;;16.90;99.90;;;;;;5073965;28;21176;-88
2021/07/08 04:15:15;;;;;;;4.47;4.13;;;16.90;99.90;;;;;;5073129;28;20619;-88
2021/07/08 04:17:42;;;;;;;11.07;4.50;;;16.90;99.90;;;;;;5072818;28;20669;-88
2021/07/08 04:20:12;;;;;;;6.50;5.33;;;17.00;99.90;;;;;;5072858;28;20630;-88
2021/07/08 04:22:41;;;;;;;5.50;5.00;;;17.00;99.90;;;;;;5073302;28;20638;-88
2021/07/08 04:25:10;;;;;;;5.70;5.20;;;17.00;99.90;;;;;;5073367;28;20646;-87
2021/07/08 04:27:38;;;;;;;5.23;4.77;;;17.00;99.90;;;;;;5091732;28;20728;-88
2021/07/08 04:30:21;;;;;;;5.47;4.97;;;17.00;99.90;;;;;;5095227;28;20941;-88
2021/07/08 04:32:57;;;;;;;5.57;5.07;;;16.90;99.90;;;;;;5088437;28;20685;-89
2021/07/08 04:35:30;;;;;;;5.20;4.80;;;17.00;99.90;;;;;;5093816;28;20650;-89
2021/07/08 04:37:59;;;;;;;5.60;5.10;;;17.00;99.90;;;;;;5094872;28;20618;-89
2021/07/08 04:40:28;;;;;;;5.53;5.03;;;17.00;99.90;;;;;;5093040;28;20679;-88
2021/07/08 04:42:55;;;;;;;5.40;4.80;;;17.00;99.90;;;;;;5092956;28;20642;-89
2021/07/08 04:45:25;;;;;;;4.97;4.47;;;17.00;99.90;;;;;;5077214;28;20627;-90
2021/07/08 04:47:52;;;;;;;6.30;4.60;;;17.10;99.90;;;;;;5071490;28;21227;-90
2021/07/08 04:50:20;;;;;;;6.10;5.50;;;17.00;99.90;;;;;;5071563;28;20611;-89
2021/07/08 04:52:48;;;;;;;5.33;4.93;;;17.00;99.90;;;;;;5071895;28;20613;-90
2021/07/08 04:55:21;;;;;;;6.00;5.13;;;17.10;99.90;;;;;;5071637;28;20648;-89
2021/07/08 04:57:48;;;;;;;6.20;5.50;;;17.10;99.90;;;;;;5072415;28;20624;-89
2021/07/08 05:00:18;;;;;;;7.00;5.70;;;17.10;99.90;;;;;;5072424;28;20610;-89
2021/07/08 05:02:48;;;;;;;5.83;5.33;;;17.00;99.90;;;;;;5072701;28;20620;-89
2021/07/08 05:05:15;;;;;;;5.60;5.20;;;17.00;99.90;;;;;;5072082;28;20623;-89
2021/07/08 05:07:42;;;;;;;6.03;5.53;;;17.00;99.90;;;;;;5071791;28;20615;-90
2021/07/08 05:10:14;;;;;;;16.53;5.87;;;17.10;99.90;;;;;;5072687;28;20615;-89
2021/07/08 05:12:43;;;;;;;6.13;5.63;;;17.10;99.90;;;;;;5071090;28;20615;-90
2021/07/08 05:15:13;;;;;;;10.23;6.00;;;17.20;99.90;;;;;;5051635;28;20605;-89
2021/07/08 05:17:41;;;;;;;6.30;5.70;;;17.20;99.90;;;;;;5051898;28;20670;-89
2021/07/08 05:20:09;;;;;;;9.60;6.27;;;17.20;99.90;;;;;;5058671;28;20674;-89
2021/07/08 05:22:37;;;;;;;6.13;5.53;;;17.10;99.90;;;;;;5071666;28;20653;-89
2021/07/08 05:25:05;;;;;;;7.07;6.37;;;17.10;99.90;;;;;;5071579;28;20666;-88
2021/07/08 05:27:33;;;;;;;9.70;7.50;;;17.10;99.90;;;;;;5089029;28;20946;-89
2021/07/08 05:30:01;;;;;;;7.00;6.20;;;17.00;99.90;;;;;;5091941;28;20626;-89
2021/07/08 05:32:29;;;;;;;6.07;5.47;;;17.00;99.90;;;;;;5090863;28;21119;-87
2021/07/08 05:34:56;;;;;;;6.50;6.00;;;16.90;99.90;;;;;;5065171;28;21185;-89
2021/07/08 05:37:24;;;;;;;6.00;5.50;;;16.80;99.90;;;;;;5069456;28;20634;-89
2021/07/08 05:39:51;;;;;;;8.33;5.80;;;16.80;99.90;;;;;;5072218;28;20632;-89
2021/07/08 05:42:18;;;;;;;9.23;6.37;;;16.80;99.90;;;;;;5071351;28;21244;-88
2021/07/08 05:44:45;;;;;;;7.43;6.83;;;16.90;99.90;;;;;;5072197;28;20976;-89
2021/07/08 05:47:15;;;;;;;7.03;6.43;;;16.90;99.90;;;;;;5071881;28;20625;-89
2021/07/08 05:49:42;;;;;;;9.67;5.80;;;16.90;99.90;;;;;;5071905;28;20714;-89
2021/07/08 05:52:09;;;;;;;7.37;6.63;;;16.90;99.90;;;;;;5073220;28;21249;-89
2021/07/08 05:54:36;;;;;;;7.33;6.43;;;16.90;99.90;;;;;;5073154;28;21252;-89
2021/07/08 05:57:04;;;;;;;6.23;5.63;;;16.90;99.90;;;;;;5073821;28;20613;-89
2021/07/08 05:59:31;;;;;;;7.10;6.50;;;17.00;99.90;;;;;;5073707;28;20957;-89
2021/07/08 06:01:58;;;;;;;6.60;5.97;;;16.90;99.90;;;;;;5071013;28;20660;-89
2021/07/08 06:04:26;;;;;;;6.17;5.57;;;17.00;99.90;;;;;;5072510;28;20625;-89
2021/07/08 06:06:53;;;;;;;6.27;5.17;;;17.00;99.90;;;;;;5072129;28;20711;-90
2021/07/08 06:09:21;;;;;;;6.40;5.80;;;17.10;99.90;;;;;;5071817;28;20733;-90
2021/07/08 06:11:48;;;;;;;11.70;6.80;;;17.20;99.90;;;;;;5071992;28;20617;-90
2021/07/08 06:14:16;;;;;;;5.47;4.97;;;17.10;99.90;;;;;;5071298;28;20636;-90
2021/07/08 06:16:43;;;;;;;7.10;4.87;;;17.20;99.90;;;;;;5072896;28;20621;-90
2021/07/08 06:19:10;;;;;;;10.13;5.87;;;17.30;99.90;;;;;;5072845;28;20972;-89
2021/07/08 06:21:38;;;;;;;4.70;4.30;;;17.40;99.90;;;;;;5072683;28;21226;-90
2021/07/08 06:24:07;;;;;;;6.97;5.03;;;17.30;99.90;;;;;;5072871;28;20720;-90
2021/07/08 06:29:57;;;;;;;4.70;4.30;;;17.40;99.90;;;;;;5071117;28;20666;-89
2021/07/08 06:32:24;;;;;;;5.50;5.10;;;17.50;99.90;;;;;;5071150;28;20619;-89
2021/07/08 06:34:51;;;;;;;6.73;5.10;;;17.40;99.90;;;;;;5073045;28;20728;-89
2021/07/08 06:37:19;;;;;;;4.77;4.37;;;17.40;99.90;;;;;;5071932;28;20610;-89
2021/07/08 06:39:47;;;;;;;4.57;4.17;;;17.40;99.90;;;;;;5072310;28;21250;-90
2021/07/08 06:42:14;;;;;;;7.07;4.30;;;17.30;99.90;;;;;;5073871;28;21000;-89
2021/07/08 06:44:41;;;;;;;4.57;4.17;;;17.30;99.90;;;;;;5074114;28;20633;-89
2021/07/08 06:47:10;;;;;;;5.67;5.17;;;17.50;99.90;;;;;;5084783;28;20687;-90
2021/07/08 06:49:38;;;;;;;4.70;4.30;;;17.50;99.90;;;;;;5073237;28;20625;-90
2021/07/08 06:52:06;;;;;;;5.77;4.80;;;17.60;99.90;;;;;;5073617;28;20643;-89
2021/07/08 06:54:34;;;;;;;4.97;4.57;;;17.60;99.90;;;;;;5073106;28;21119;-89
2021/07/08 06:57:01;;;;;;;5.20;4.70;;;17.60;99.90;;;;;;5074424;28;20616;-89
2021/07/08 06:59:29;;;;;;;5.03;4.60;;;17.60;99.90;;;;;;5074553;28;20612;-89
2021/07/08 07:01:56;;;;;;;7.17;5.20;;;17.70;99.90;;;;;;5074564;28;21244;-90
2021/07/08 07:04:23;;;;;;;5.33;4.93;;;17.80;99.90;;;;;;5072394;28;20606;-90
2021/07/08 07:06:50;;;;;;;4.67;4.20;;;17.80;99.90;;;;;;5074879;28;20605;-90
2021/07/08 07:09:19;;;;;;;5.43;4.00;;;17.90;99.90;;;;;;5074440;28;20931;-89
2021/07/08 07:11:54;;;;;;;4.23;3.93;;;17.90;99.90;;;;;;5074736;28;20731;-90
2021/07/08 07:14:21;;;;;;;4.87;4.07;;;18.00;99.90;;;;;;5078670;28;20748;-90
2021/07/08 07:16:48;;;;;;;4.30;4.00;;;18.00;99.90;;;;;;5077167;28;20624;-91
2021/07/08 07:19:15;;;;;;;4.53;3.90;;;18.00;99.90;;;;;;5077969;28;20667;-90
2021/07/08 07:21:42;;;;;;;4.70;4.30;;;18.10;99.90;;;;;;5077495;28;20669;-89
2021/07/08 07:24:09;;;;;;;4.47;4.07;;;18.20;99.90;;;;;;5077475;28;21217;-88
2021/07/08 07:26:36;;;;;;;5.03;4.20;;;18.30;99.90;;;;;;5087832;28;20621;-89
2021/07/08 07:29:05;;;;;;;4.40;4.00;;;18.40;99.90;;;;;;5084561;28;20613;-88
2021/07/08 07:31:32;;;;;;;5.30;4.33;;;18.40;99.90;;;;;;5075730;28;20621;-89
2021/07/08 07:34:02;;;;;;;5.00;4.60;;;18.40;99.90;;;;;;5077280;28;20610;-89
2021/07/08 07:36:29;;;;;;;5.03;4.57;;;18.50;99.90;;;;;;5077350;28;20627;-89
2021/07/08 07:38:56;;;;;;;5.87;5.37;;;18.50;99.90;;;;;;5077552;28;20606;-89
2021/07/08 07:41:23;;;;;;;5.80;5.30;;;18.50;99.90;;;;;;5077565;28;20657;-89
2021/07/08 07:43:50;;;;;;;6.10;5.50;;;18.50;99.90;;;;;;5077453;28;20609;-89
2021/07/08 07:46:18;;;;;;;5.43;4.90;;;18.50;99.90;;;;;;5077124;28;21174;-88
2021/07/08 07:48:45;;;;;;;5.63;5.20;;;18.60;99.90;;;;;;5077436;28;20602;-90
2021/07/08 07:51:12;;;;;;;6.37;5.20;;;18.60;99.90;;;;;;5077396;28;20597;-89
2021/07/08 07:53:39;;;;;;;5.77;5.30;;;18.60;99.90;;;;;;5076524;28;20626;-90
2021/07/08 07:56:07;;;;;;;6.47;5.87;;;18.70;99.90;;;;;;5076777;28;20629;-89
2021/07/08 07:58:34;;;;;;;5.77;5.27;;;18.70;99.90;;;;;;5073204;28;20613;-89
2021/07/08 08:01:01;;;;;;;7.13;5.23;;;18.70;99.90;;;;;;5073527;28;21177;-88
2021/07/08 08:03:30;;;;;;;6.37;5.67;;;18.60;99.90;;;;;;5073003;28;20653;-89
2021/07/08 08:08:40;;;;;;;5.77;5.37;;;18.70;99.90;;;;;;5073549;28;20632;-89
2021/07/08 08:11:20;;;;;;;5.60;5.10;;;18.60;99.90;;;;;;5071898;28;20610;-88
2021/07/08 08:13:47;;;;;;;7.50;5.57;;;18.70;99.90;;;;;;5072757;28;21162;-88
2021/07/08 08:16:14;;;;;;;6.90;6.20;;;18.70;99.90;;;;;;5072917;28;20964;-89
2021/07/08 08:18:43;;;;;;;5.97;5.37;;;18.80;99.90;;;;;;5076622;28;21208;-89
2021/07/08 08:21:10;;;;;;;6.60;6.00;;;19.00;99.90;;;;;;5076570;28;20648;-89
2021/07/08 08:24:21;;;;;;;4.73;4.33;;;19.00;99.90;;;;;;5073793;28;21180;-90
2021/07/08 08:27:09;;;;;;;6.00;5.40;;;19.10;99.90;;;;;;4995396;28;20621;-88
2021/07/08 08:29:55;;;;;;;4.67;4.17;;;19.40;99.90;;;;;;4989723;28;21256;-87
2021/07/08 08:33:19;;;;;;;;;;;;;;;;;;;;;
2021/07/08 08:36:10;;;;;;;4.70;4.40;;;19.50;99.90;;;;;;5032904;28;20995;-89
2021/07/08 08:38:37;;;;;;;6.43;5.93;;;19.60;99.90;;;;;;5075929;28;20610;-90
2021/07/08 08:41:04;;;;;;;5.13;4.63;;;19.70;99.90;;;;;;5076482;28;20729;-88
2021/07/08 08:43:32;;;;;;;5.30;4.90;;;19.80;99.90;;;;;;5076356;28;20653;-86
2021/07/08 08:46:02;;;;;;;5.67;5.10;;;19.90;99.90;;;;;;5056507;28;20666;-89
2021/07/08 08:48:29;;;;;;;5.30;4.80;;;19.60;99.90;;;;;;5070017;28;20649;-89
2021/07/08 08:50:56;;;;;;;5.77;5.20;;;19.80;99.90;;;;;;5076759;28;20687;-89
2021/07/08 08:53:25;;;;;;;5.30;4.90;;;20.00;99.90;;;;;;5076630;28;20623;-88
2021/07/08 08:55:52;;;;;;;4.77;4.47;;;20.20;99.90;;;;;;5075667;28;20639;-89
2021/07/08 08:58:21;;;;;;;5.20;4.80;;;20.20;99.90;;;;;;5076602;28;20615;-89
2021/07/08 09:00:50;;;;;;;5.43;4.47;;;20.40;99.90;;;;;;5076693;28;20624;-89
2021/07/08 09:03:19;;;;;;;5.00;4.57;;;20.50;99.90;;;;;;5075934;28;20695;-89
2021/07/08 09:05:49;;;;;;;4.63;4.17;;;20.60;99.90;;;;;;5075550;28;20690;-90
2021/07/08 09:08:20;;;;;;;5.23;4.73;;;20.60;99.90;;;;;;5072700;28;20633;-88
2021/07/08 09:11:12;;;;;;;5.80;4.83;;;20.50;99.90;;;;;;5090516;28;20639;-87
2021/07/08 09:14:04;;;;;;;4.27;3.90;;;20.60;99.90;;;;;;5076595;28;20641;-88
2021/07/08 09:16:46;;;;;;;4.13;3.83;;;20.60;99.90;;;;;;5071611;28;20624;-88
2021/07/08 09:19:18;;;;;;;3.93;3.63;;;20.50;99.90;;;;;;5066427;28;20627;-89
2021/07/08 09:22:13;;;;;;;4.27;3.87;;;20.60;99.90;;;;;;5072761;28;20674;-87
2021/07/08 09:24:47;;;;;;;5.23;4.83;;;20.70;99.90;;;;;;5075354;28;20680;-89
2021/07/08 09:27:15;;;;;;;4.93;4.43;;;20.80;99.90;;;;;;5084518;28;20958;-87
2021/07/08 09:29:45;;;;;;;5.17;4.67;;;20.80;99.90;;;;;;5076187;28;20624;-88
2021/07/08 09:32:15;;;;;;;4.73;4.40;;;20.70;99.90;;;;;;5072689;28;20620;-88
2021/07/08 09:34:46;;;;;;;4.17;3.87;;;20.50;99.90;;;;;;5079214;28;20651;-88
2021/07/08 09:37:16;;;;;;;4.00;3.63;;;20.60;99.90;;;;;;5082185;28;20618;-89
2021/07/08 09:39:45;;;;;;;5.10;3.93;;;20.60;99.90;;;;;;5080373;28;20621;-89
2021/07/08 09:42:36;;;;;;;3.30;3.10;;;20.60;99.90;;;;;;5074353;28;20656;-88
2021/07/08 09:45:05;;;;;;;4.03;3.63;;;20.40;99.90;;;;;;5074923;28;20637;-88
2021/07/08 09:47:32;;;;;;;4.93;4.53;;;20.60;99.90;;;;;;5077255;28;20619;-87
2021/07/08 09:50:00;;;;;;;3.43;3.17;;;20.70;99.90;;;;;;5092972;28;20647;-87
2021/07/08 09:52:27;;;;;;;3.90;3.60;;;20.60;99.90;;;;;;5095018;28;20616;-87
2021/07/08 09:57:48;;;;;;;2.87;2.70;;;20.40;99.90;;;;;;5075010;28;20968;-88
2021/07/08 10:00:35;;;;;;;3.07;2.87;;;20.20;99.90;;;;;;5074764;28;20632;-87
2021/07/08 10:03:04;;;;;;;5.00;2.30;;;20.20;99.90;;;;;;5074611;28;21399;-87
2021/07/08 10:05:34;;;;;;;2.77;2.53;;;20.30;99.90;;;;;;5073395;28;20620;-88
2021/07/08 10:08:01;;;;;;;3.60;3.30;;;20.20;99.90;;;;;;5074530;28;20734;-87
2021/07/08 10:10:31;;;;;;;3.63;2.70;;;20.30;99.90;;;;;;5074059;28;20616;-87
2021/07/08 10:13:01;;;;;;;4.60;3.57;;;20.20;99.90;;;;;;5073472;28;20694;-88
2021/07/08 10:15:33;;;;;;;3.13;2.80;;;20.30;99.90;;;;;;5073714;28;20661;-87
2021/07/08 10:18:02;;;;;;;3.13;2.93;;;20.50;99.90;;;;;;5072359;28;21236;-88
2021/07/08 10:20:35;;;;;;;2.80;2.60;;;20.60;99.90;;;;;;5073763;28;20615;-88
2021/07/08 10:23:02;;;;;;;3.40;3.20;;;20.80;99.90;;;;;;5073825;28;20666;-88
2021/07/08 10:25:30;;;;;;;2.60;2.40;;;21.00;99.90;;;;;;5073331;28;20676;-87
2021/07/08 10:28:00;;;;;;;2.50;2.40;;;21.10;99.90;;;;;;5073341;28;20657;-88
2021/07/08 10:30:31;;;;;;;2.60;2.03;;;21.20;99.60;;;;;;5072877;28;20718;-89
2021/07/08 10:32:59;;;;;;;2.30;2.10;;;21.20;99.80;;;;;;5073729;28;20635;-88
2021/07/08 10:35:38;;;;;;;2.30;2.10;;;21.30;99.90;;;;;;5073446;28;20628;-88
2021/07/08 10:38:48;;;;;;;2.60;2.40;;;21.10;99.90;;;;;;5073290;28;20636;-88
2021/07/08 10:41:55;;;;;;;2.30;2.10;;;20.90;99.90;;;;;;5072854;28;21242;-88
2021/07/08 10:44:48;;;;;;;2.90;2.70;;;20.70;99.90;;;;;;5073243;28;20948;-88
2021/07/08 10:47:37;;;;;;;2.80;2.60;;;20.80;99.90;;;;;;5068154;28;20871;-89
2021/07/08 10:50:06;;;;;;;2.50;2.30;;;20.90;99.90;;;;;;5068751;28;20631;-89
2021/07/08 10:52:53;;;;;;;2.57;2.40;;;21.10;99.90;;;;;;5073062;28;20623;-92
2021/07/08 10:56:17;;;;;;;2.00;1.90;;;21.20;99.90;;;;;;5073059;28;20978;-88
2021/07/08 10:58:55;;;;;;;2.00;1.90;;;21.10;99.90;;;;;;5001548;28;20646;-88
2021/07/08 11:01:54;;;;;;;2.07;1.80;;;21.10;99.90;;;;;;5011176;28;20649;-89
2021/07/08 11:04:44;;;;;;;1.80;1.70;;;21.10;99.90;;;;;;4999961;28;20685;-88
2021/07/08 11:07:16;;;;;;;2.23;2.10;;;20.90;99.90;;;;;;4998280;28;20730;-89
2021/07/08 11:09:57;;;;;;;3.03;2.37;;;20.90;99.90;;;;;;5038142;28;20666;-88
2021/07/08 11:12:32;;;;;;;2.17;2.07;;;20.90;99.90;;;;;;5062732;28;20612;-89
2021/07/08 11:15:00;;;;;;;2.17;2.07;;;20.90;99.90;;;;;;5075883;28;20623;-89
2021/07/08 11:17:39;;;;;;;1.87;1.77;;;21.00;99.90;;;;;;5072431;28;20639;-89
2021/07/08 11:20:27;;;;;;;2.20;2.10;;;21.20;99.90;;;;;;5060166;28;20631;-88
2021/07/08 11:22:54;;;;;;;1.90;1.70;;;21.20;99.30;;;;;;5072921;28;21230;-89
2021/07/08 11:25:40;;;;;;;1.70;1.60;;;21.20;99.90;;;;;;5069798;28;20676;-89
2021/07/08 11:28:26;;;;;;;1.93;1.83;;;21.20;99.00;;;;;;5072089;28;20630;-88
2021/07/08 11:30:58;;;;;;;2.37;2.17;;;21.30;99.00;;;;;;5061435;28;20625;-90
2021/07/08 11:33:28;;;;;;;2.17;2.00;;;21.30;99.00;;;;;;5074132;28;21052;-89
2021/07/08 11:36:01;;;;;;;1.80;1.70;;;21.40;99.30;;;;;;5071957;28;20631;-89
2021/07/08 11:38:33;;;;;;;1.83;1.73;;;21.30;99.80;;;;;;5073005;28;20628;-90
2021/07/08 11:41:04;;;;;;;2.47;1.80;;;21.30;99.90;;;;;;5073726;28;20617;-89
2021/07/08 11:43:36;;;;;;;2.30;2.10;;;21.30;99.00;;;;;;5072337;28;20671;-88
2021/07/08 11:46:11;;;;;;;3.03;2.00;;;21.30;98.90;;;;;;5073323;28;20656;-90
2021/07/08 11:48:44;;;;;;;2.03;1.83;;;21.30;99.70;;;;;;5073868;28;20604;-89
2021/07/08 11:51:18;;;;;;;1.90;1.80;;;21.30;99.50;;;;;;5074269;28;20708;-89
2021/07/08 11:53:46;;;;;;;2.13;1.93;;;21.20;99.60;;;;;;5071025;28;20714;-90
2021/07/08 11:56:24;;;;;;;1.97;1.70;;;21.20;99.90;;;;;;5070441;28;20628;-90
2021/07/08 11:58:52;;;;;;;2.50;2.30;;;21.40;98.50;;;;;;5075084;28;20632;-89
2021/07/08 12:01:22;;;;;;;2.47;2.27;;;21.30;98.70;;;;;;5078283;28;20699;-89
2021/07/08 12:03:55;;;;;;;1.90;1.80;;;21.30;99.40;;;;;;5077530;28;20667;-89
2021/07/08 12:06:27;;;;;;;3.17;2.67;;;21.40;98.80;;;;;;5056670;28;20621;-90
2021/07/08 12:08:57;;;;;;;2.10;1.90;;;21.40;98.70;;;;;;5059546;28;20617;-89
2021/07/08 12:11:31;;;;;;;3.30;2.13;;;21.40;98.80;;;;;;5064191;28;20636;-89
2021/07/08 12:14:00;;;;;;;3.80;2.27;;;21.50;98.50;;;;;;5071328;28;20632;-89
2021/07/08 12:16:30;;;;;;;1.93;1.83;;;21.40;98.60;;;;;;5075464;28;20647;-90
2021/07/08 12:19:00;;;;;;;3.73;2.53;;;21.50;98.50;;;;;;5077319;28;20633;-89
2021/07/08 12:21:30;;;;;;;2.73;1.90;;;21.50;98.80;;;;;;5078736;28;21248;-90
2021/07/08 12:23:59;;;;;;;2.20;2.10;;;21.60;98.70;;;;;;5077684;28;20779;-90
2021/07/08 12:26:43;;;;;;;2.33;2.20;;;21.80;98.00;;;;;;5076896;28;20639;-91
2021/07/08 12:29:21;;;;;;;2.27;2.17;;;22.00;97.20;;;;;;5077380;28;20628;-89
2021/07/08 12:31:54;;;;;;;2.20;2.10;;;21.80;97.90;;;;;;5075629;28;20632;-88
2021/07/08 12:34:25;;;;;;;2.20;2.10;;;21.90;98.50;;;;;;5076917;28;21267;-90
2021/07/08 12:36:52;;;;;;;2.63;2.43;;;21.90;99.10;;;;;;5077056;28;20732;-89
2021/07/08 12:39:33;;;;;;;3.30;3.03;;;21.70;99.90;;;;;;5077242;28;20624;-88
2021/07/08 12:42:08;;;;;;;3.03;2.20;;;21.70;99.90;;;;;;5073693;28;20625;-89
2021/07/08 12:44:47;;;;;;;2.40;2.20;;;21.50;99.90;;;;;;5077762;28;20659;-88
2021/07/08 12:47:19;;;;;;;2.53;1.93;;;21.50;99.90;;;;;;5076409;28;20620;-88
2021/07/08 12:49:49;;;;;;;3.30;2.57;;;20.90;99.90;;;;;;5076227;28;21168;-89
2021/07/08 12:52:25;;;;;;;2.30;2.20;;;20.80;99.90;;;;;;5077133;28;20610;-88
2021/07/08 12:54:53;;;;;;;2.80;2.30;;;20.80;99.90;;;;;;5087250;28;20642;-89
2021/07/08 12:57:21;;;;;;;2.30;2.20;;;20.80;99.90;;;;;;5075868;28;20693;-86
2021/07/08 12:59:56;;;;;;;3.10;2.77;;;20.70;99.90;;;;;;5074747;28;20625;-87
2021/07/08 13:02:25;;;;;;;2.03;1.93;;;20.40;99.90;;;;;;5076190;28;20686;-86
2021/07/08 13:05:06;;;;;;;2.07;1.97;;;20.10;99.90;;;;;;5070926;28;20671;-88
2021/07/08 13:07:34;;;;;;;2.10;2.00;;;20.30;99.90;;;;;;5062097;28;20627;-88
2021/07/08 13:10:04;;;;;;;2.03;1.93;;;20.50;99.90;;;;;;5056237;28;20610;-88
2021/07/08 13:12:31;;;;;;;2.17;2.07;;;20.50;99.90;;;;;;5057254;28;20613;-88
2021/07/08 13:18:46;;;;;;;2.63;2.43;;;20.60;99.90;;;;;;5013854;28;21221;-88
2021/07/08 13:21:17;;;;;;;2.20;2.00;;;20.50;99.90;;;;;;5022050;28;20665;-87
2021/07/08 13:23:47;;;;;;;2.53;2.33;;;20.30;99.90;;;;;;5049233;28;20679;-88